Nuuk Airport

KL  EN  DA
ASIAQ
Weather Now GREENLAND SURVEY
Updated [WGT/WGST] Temperature [°C] Wind [m/s] Air pressure [hPa] Relative humidity [%] Precipitation [mm]
Present Wind chill Speed Max
25.02 08:00-12,3-21,36,4 ⇐7,4n/a62n/a
25.02 07:00-12,4-20,75,3 ⇐6,4n/a65n/a
25.02 06:00-13,0-21,95,9 ⇐7,0n/a67n/a
25.02 05:00-12,9-20,94,8 ⇐6,0n/a72n/a
25.02 04:00-13,4-20,03,3 ⇐4,1n/a68n/a
25.02 03:00-12,8-18,02,4 ⇐3,1n/a78n/a
25.02 02:00-12,6-17,92,5 ⇐3,1n/a80n/a
25.02 01:00-12,8-17,21,9 ⇐2,7n/a83n/a
25.02 00:00-12,60,00,0 ⇓0,8n/a76n/a
24.02 23:00-12,5-16,21,6 ⇘3,9n/a72n/a
24.02 22:00-12,2-19,54,2 ⇒5,6n/a73n/a
24.02 21:00-12,0-20,05,1 ⇒6,8n/a69n/a
24.02 20:00-12,0-19,95,0 ⇒6,4n/a71n/a
24.02 19:00-11,6-19,14,6 ⇒6,5n/a67n/a
24.02 18:00-11,6-19,14,6 ⇒6,7n/a68n/a
24.02 17:00-11,5-18,54,1 ⇒5,7n/a68n/a
24.02 16:00-11,3-19,96,2 ⇒8,5n/a69n/a
24.02 15:00-10,7-19,46,6 ⇒8,3n/a75n/a
24.02 14:00-10,0-18,56,5 ⇘9,0n/a71n/a
24.02 13:00-9,2-17,76,9 ⇒8,9n/a67n/a
24.02 12:00-8,8-17,37,1 ⇘9,0n/a66n/a
24.02 11:00-9,2-18,17,7 ⇘9,7n/a74n/a
24.02 10:00-9,9-18,26,3 ⇘8,4n/a88n/a
24.02 09:00-9,7-18,16,6 ⇘9,3n/a89n/a
24.02 08:00-9,7-18,06,4 ⇘9,1n/a91n/a
Position: (64.2,-51.683333)

[Back]